sensor_id;sensor_type;location;lat;lon;timestamp;P1;durP1;ratioP1;P2;durP2;ratioP2
57822;SDS011;43650;48.064;20.624;2022-11-11T00:00:25;36.33;;;16.87;;
57822;SDS011;43650;48.064;20.624;2022-11-11T00:01:25;30.87;;;16.90;;
57822;SDS011;43650;48.064;20.624;2022-11-11T00:02:25;39.50;;;18.53;;
57822;SDS011;43650;48.064;20.624;2022-11-11T00:03:26;41.00;;;18.48;;
57822;SDS011;43650;48.064;20.624;2022-11-11T00:04:27;39.97;;;17.90;;
57822;SDS011;43650;48.064;20.624;2022-11-11T00:05:27;40.37;;;17.17;;
57822;SDS011;43650;48.064;20.624;2022-11-11T00:06:28;35.03;;;16.97;;
57822;SDS011;43650;48.064;20.624;2022-11-11T00:07:29;34.43;;;18.27;;
57822;SDS011;43650;48.064;20.624;2022-11-11T00:08:29;37.72;;;16.52;;
57822;SDS011;43650;48.064;20.624;2022-11-11T00:09:30;34.80;;;16.55;;
57822;SDS011;43650;48.064;20.624;2022-11-11T00:10:31;33.60;;;16.73;;
57822;SDS011;43650;48.064;20.624;2022-11-11T00:11:31;40.80;;;17.23;;
57822;SDS011;43650;48.064;20.624;2022-11-11T00:12:31;32.43;;;16.73;;
57822;SDS011;43650;48.064;20.624;2022-11-11T00:13:32;31.20;;;14.23;;
57822;SDS011;43650;48.064;20.624;2022-11-11T00:14:33;29.92;;;16.40;;
57822;SDS011;43650;48.064;20.624;2022-11-11T00:15:35;31.23;;;15.20;;
57822;SDS011;43650;48.064;20.624;2022-11-11T00:16:37;28.80;;;14.65;;
57822;SDS011;43650;48.064;20.624;2022-11-11T00:17:56;36.00;;;16.92;;
57822;SDS011;43650;48.064;20.624;2022-11-11T00:19:15;36.90;;;16.08;;
57822;SDS011;43650;48.064;20.624;2022-11-11T00:20:35;33.15;;;14.10;;
57822;SDS011;43650;48.064;20.624;2022-11-11T00:21:54;25.50;;;12.37;;
57822;SDS011;43650;48.064;20.624;2022-11-11T00:23:20;26.45;;;11.23;;
57822;SDS011;43650;48.064;20.624;2022-11-11T00:24:40;23.33;;;10.77;;
57822;SDS011;43650;48.064;20.624;2022-11-11T00:26:00;20.88;;;10.40;;
57822;SDS011;43650;48.064;20.624;2022-11-11T00:27:01;21.60;;;9.95;;
57822;SDS011;43650;48.064;20.624;2022-11-11T00:28:02;19.65;;;9.05;;
57822;SDS011;43650;48.064;20.624;2022-11-11T00:29:02;21.93;;;10.63;;
57822;SDS011;43650;48.064;20.624;2022-11-11T00:30:03;17.27;;;9.13;;
57822;SDS011;43650;48.064;20.624;2022-11-11T00:31:07;19.80;;;9.93;;
57822;SDS011;43650;48.064;20.624;2022-11-11T00:32:09;20.88;;;9.35;;
57822;SDS011;43650;48.064;20.624;2022-11-11T00:33:30;23.73;;;11.00;;
57822;SDS011;43650;48.064;20.624;2022-11-11T00:34:31;23.42;;;10.60;;
57822;SDS011;43650;48.064;20.624;2022-11-11T00:35:31;21.50;;;8.70;;
57822;SDS011;43650;48.064;20.624;2022-11-11T00:36:50;17.35;;;9.38;;
57822;SDS011;43650;48.064;20.624;2022-11-11T00:37:51;20.00;;;8.90;;
57822;SDS011;43650;48.064;20.624;2022-11-11T00:38:51;22.47;;;9.50;;
57822;SDS011;43650;48.064;20.624;2022-11-11T00:39:54;21.90;;;9.98;;
57822;SDS011;43650;48.064;20.624;2022-11-11T00:40:54;27.87;;;11.37;;
57822;SDS011;43650;48.064;20.624;2022-11-11T00:41:55;23.57;;;10.37;;
57822;SDS011;43650;48.064;20.624;2022-11-11T00:42:55;22.53;;;10.17;;
57822;SDS011;43650;48.064;20.624;2022-11-11T00:43:56;18.97;;;9.23;;
57822;SDS011;43650;48.064;20.624;2022-11-11T00:44:56;23.80;;;10.57;;
57822;SDS011;43650;48.064;20.624;2022-11-11T00:45:57;18.30;;;9.50;;
57822;SDS011;43650;48.064;20.624;2022-11-11T00:47:17;19.45;;;8.55;;
57822;SDS011;43650;48.064;20.624;2022-11-11T00:48:36;22.17;;;9.45;;
57822;SDS011;43650;48.064;20.624;2022-11-11T00:49:55;25.30;;;9.50;;
57822;SDS011;43650;48.064;20.624;2022-11-11T00:51:14;16.95;;;8.32;;
57822;SDS011;43650;48.064;20.624;2022-11-11T00:52:15;21.40;;;9.90;;
57822;SDS011;43650;48.064;20.624;2022-11-11T00:53:17;24.97;;;10.03;;
57822;SDS011;43650;48.064;20.624;2022-11-11T00:54:18;16.30;;;9.27;;
57822;SDS011;43650;48.064;20.624;2022-11-11T00:55:19;18.80;;;8.67;;
57822;SDS011;43650;48.064;20.624;2022-11-11T00:56:19;20.17;;;8.80;;
57822;SDS011;43650;48.064;20.624;2022-11-11T00:57:20;21.85;;;9.90;;
57822;SDS011;43650;48.064;20.624;2022-11-11T00:58:21;17.67;;;9.43;;
57822;SDS011;43650;48.064;20.624;2022-11-11T00:59:22;19.12;;;9.48;;
57822;SDS011;43650;48.064;20.624;2022-11-11T01:00:22;18.10;;;9.27;;
57822;SDS011;43650;48.064;20.624;2022-11-11T01:01:23;23.07;;;10.17;;
57822;SDS011;43650;48.064;20.624;2022-11-11T01:02:23;19.30;;;9.80;;
57822;SDS011;43650;48.064;20.624;2022-11-11T01:03:25;23.63;;;9.83;;
57822;SDS011;43650;48.064;20.624;2022-11-11T01:04:27;20.33;;;9.25;;
57822;SDS011;43650;48.064;20.624;2022-11-11T01:05:27;27.70;;;10.83;;
57822;SDS011;43650;48.064;20.624;2022-11-11T01:06:28;18.85;;;9.70;;
57822;SDS011;43650;48.064;20.624;2022-11-11T01:07:28;21.07;;;10.00;;
57822;SDS011;43650;48.064;20.624;2022-11-11T01:08:29;18.67;;;8.80;;
57822;SDS011;43650;48.064;20.624;2022-11-11T01:09:30;20.37;;;8.23;;
57822;SDS011;43650;48.064;20.624;2022-11-11T01:10:30;19.17;;;10.00;;
57822;SDS011;43650;48.064;20.624;2022-11-11T01:11:43;22.23;;;9.45;;
57822;SDS011;43650;48.064;20.624;2022-11-11T01:12:43;22.20;;;10.43;;
57822;SDS011;43650;48.064;20.624;2022-11-11T01:13:44;24.30;;;11.03;;
57822;SDS011;43650;48.064;20.624;2022-11-11T01:14:45;19.07;;;10.63;;
57822;SDS011;43650;48.064;20.624;2022-11-11T01:15:46;34.23;;;16.53;;
57822;SDS011;43650;48.064;20.624;2022-11-11T01:16:48;34.42;;;15.52;;
57822;SDS011;43650;48.064;20.624;2022-11-11T01:17:48;31.43;;;14.83;;
57822;SDS011;43650;48.064;20.624;2022-11-11T01:18:49;40.90;;;17.60;;
57822;SDS011;43650;48.064;20.624;2022-11-11T01:19:50;58.00;;;26.62;;
57822;SDS011;43650;48.064;20.624;2022-11-11T01:21:03;61.77;;;30.00;;
57822;SDS011;43650;48.064;20.624;2022-11-11T01:22:10;52.08;;;27.02;;
57822;SDS011;43650;48.064;20.624;2022-11-11T01:23:10;49.67;;;24.77;;
57822;SDS011;43650;48.064;20.624;2022-11-11T01:24:12;50.00;;;23.92;;
57822;SDS011;43650;48.064;20.624;2022-11-11T01:25:12;46.70;;;21.97;;
57822;SDS011;43650;48.064;20.624;2022-11-11T01:27:13;37.47;;;19.57;;
57822;SDS011;43650;48.064;20.624;2022-11-11T01:28:13;36.80;;;17.70;;
57822;SDS011;43650;48.064;20.624;2022-11-11T01:29:14;38.60;;;17.37;;
57822;SDS011;43650;48.064;20.624;2022-11-11T01:30:14;31.50;;;15.10;;
57822;SDS011;43650;48.064;20.624;2022-11-11T01:31:15;32.75;;;14.43;;
57822;SDS011;43650;48.064;20.624;2022-11-11T01:33:17;24.48;;;11.75;;
57822;SDS011;43650;48.064;20.624;2022-11-11T01:34:17;29.00;;;11.83;;
57822;SDS011;43650;48.064;20.624;2022-11-11T01:35:17;30.00;;;12.50;;
57822;SDS011;43650;48.064;20.624;2022-11-11T01:36:25;29.53;;;14.57;;
57822;SDS011;43650;48.064;20.624;2022-11-11T01:37:26;31.42;;;14.98;;
57822;SDS011;43650;48.064;20.624;2022-11-11T01:38:27;24.07;;;12.27;;
57822;SDS011;43650;48.064;20.624;2022-11-11T01:39:27;29.07;;;12.57;;
57822;SDS011;43650;48.064;20.624;2022-11-11T01:40:28;31.43;;;12.53;;
57822;SDS011;43650;48.064;20.624;2022-11-11T01:41:32;24.17;;;11.63;;
57822;SDS011;43650;48.064;20.624;2022-11-11T01:43:49;25.98;;;11.80;;
57822;SDS011;43650;48.064;20.624;2022-11-11T01:44:50;25.57;;;12.20;;
57822;SDS011;43650;48.064;20.624;2022-11-11T01:46:00;22.60;;;10.90;;
57822;SDS011;43650;48.064;20.624;2022-11-11T01:47:03;28.25;;;11.60;;
57822;SDS011;43650;48.064;20.624;2022-11-11T01:48:05;20.83;;;10.50;;
57822;SDS011;43650;48.064;20.624;2022-11-11T01:49:28;28.73;;;10.77;;
57822;SDS011;43650;48.064;20.624;2022-11-11T01:50:39;23.48;;;11.60;;
57822;SDS011;43650;48.064;20.624;2022-11-11T01:53:04;25.60;;;11.73;;
57822;SDS011;43650;48.064;20.624;2022-11-11T01:54:05;25.23;;;11.60;;
57822;SDS011;43650;48.064;20.624;2022-11-11T01:55:12;21.58;;;11.48;;
57822;SDS011;43650;48.064;20.624;2022-11-11T01:56:14;25.58;;;11.98;;
57822;SDS011;43650;48.064;20.624;2022-11-11T01:57:26;28.17;;;12.05;;
57822;SDS011;43650;48.064;20.624;2022-11-11T01:58:38;25.20;;;10.75;;
57822;SDS011;43650;48.064;20.624;2022-11-11T01:59:39;23.20;;;10.07;;
57822;SDS011;43650;48.064;20.624;2022-11-11T02:00:41;18.12;;;10.10;;
57822;SDS011;43650;48.064;20.624;2022-11-11T02:01:41;16.93;;;9.83;;
57822;SDS011;43650;48.064;20.624;2022-11-11T02:02:44;19.08;;;9.63;;
57822;SDS011;43650;48.064;20.624;2022-11-11T02:03:46;19.30;;;8.65;;
57822;SDS011;43650;48.064;20.624;2022-11-11T02:05:08;22.08;;;9.50;;
57822;SDS011;43650;48.064;20.624;2022-11-11T02:06:28;23.42;;;9.15;;
57822;SDS011;43650;48.064;20.624;2022-11-11T02:07:30;15.32;;;7.60;;
57822;SDS011;43650;48.064;20.624;2022-11-11T02:08:33;17.45;;;7.80;;
57822;SDS011;43650;48.064;20.624;2022-11-11T02:09:36;14.00;;;7.78;;
57822;SDS011;43650;48.064;20.624;2022-11-11T02:10:40;16.90;;;8.10;;
57822;SDS011;43650;48.064;20.624;2022-11-11T02:11:42;14.65;;;7.57;;
57822;SDS011;43650;48.064;20.624;2022-11-11T02:13:01;17.10;;;7.70;;
57822;SDS011;43650;48.064;20.624;2022-11-11T02:14:21;18.37;;;8.57;;
57822;SDS011;43650;48.064;20.624;2022-11-11T02:15:36;16.05;;;7.10;;
57822;SDS011;43650;48.064;20.624;2022-11-11T02:16:37;21.20;;;7.72;;
57822;SDS011;43650;48.064;20.624;2022-11-11T02:17:37;15.33;;;7.50;;
57822;SDS011;43650;48.064;20.624;2022-11-11T02:18:38;18.40;;;7.35;;
57822;SDS011;43650;48.064;20.624;2022-11-11T02:20:48;14.93;;;7.00;;
57822;SDS011;43650;48.064;20.624;2022-11-11T02:21:51;16.00;;;7.27;;
57822;SDS011;43650;48.064;20.624;2022-11-11T02:23:12;14.38;;;6.82;;
57822;SDS011;43650;48.064;20.624;2022-11-11T02:24:16;18.15;;;9.05;;
57822;SDS011;43650;48.064;20.624;2022-11-11T02:26:18;10.48;;;6.47;;
57822;SDS011;43650;48.064;20.624;2022-11-11T02:28:20;15.18;;;6.95;;
57822;SDS011;43650;48.064;20.624;2022-11-11T02:29:23;17.55;;;7.35;;
57822;SDS011;43650;48.064;20.624;2022-11-11T02:30:23;14.97;;;6.57;;
57822;SDS011;43650;48.064;20.624;2022-11-11T02:31:30;11.67;;;6.33;;
57822;SDS011;43650;48.064;20.624;2022-11-11T02:32:31;14.18;;;6.72;;
57822;SDS011;43650;48.064;20.624;2022-11-11T02:33:32;17.70;;;7.53;;
57822;SDS011;43650;48.064;20.624;2022-11-11T02:34:32;17.67;;;7.20;;
57822;SDS011;43650;48.064;20.624;2022-11-11T02:35:34;19.55;;;7.78;;
57822;SDS011;43650;48.064;20.624;2022-11-11T02:36:37;15.68;;;7.25;;
57822;SDS011;43650;48.064;20.624;2022-11-11T02:37:38;18.87;;;7.93;;
57822;SDS011;43650;48.064;20.624;2022-11-11T02:38:41;18.05;;;6.82;;
57822;SDS011;43650;48.064;20.624;2022-11-11T02:39:43;15.80;;;7.62;;
57822;SDS011;43650;48.064;20.624;2022-11-11T02:40:45;17.30;;;7.57;;
57822;SDS011;43650;48.064;20.624;2022-11-11T02:42:04;15.98;;;7.80;;
57822;SDS011;43650;48.064;20.624;2022-11-11T02:43:09;19.35;;;7.97;;
57822;SDS011;43650;48.064;20.624;2022-11-11T02:44:09;17.93;;;8.40;;
57822;SDS011;43650;48.064;20.624;2022-11-11T02:45:10;17.63;;;8.00;;
57822;SDS011;43650;48.064;20.624;2022-11-11T02:46:11;19.98;;;8.82;;
57822;SDS011;43650;48.064;20.624;2022-11-11T02:47:11;23.33;;;8.40;;
57822;SDS011;43650;48.064;20.624;2022-11-11T02:48:11;16.10;;;8.93;;
57822;SDS011;43650;48.064;20.624;2022-11-11T02:49:12;26.30;;;9.47;;
57822;SDS011;43650;48.064;20.624;2022-11-11T02:50:12;26.43;;;10.10;;
57822;SDS011;43650;48.064;20.624;2022-11-11T02:51:13;25.42;;;8.57;;
57822;SDS011;43650;48.064;20.624;2022-11-11T02:52:13;25.93;;;9.80;;
57822;SDS011;43650;48.064;20.624;2022-11-11T02:53:14;27.60;;;10.13;;
57822;SDS011;43650;48.064;20.624;2022-11-11T02:54:14;25.33;;;10.20;;
57822;SDS011;43650;48.064;20.624;2022-11-11T02:55:14;28.67;;;10.50;;
57822;SDS011;43650;48.064;20.624;2022-11-11T02:56:15;27.53;;;11.10;;
57822;SDS011;43650;48.064;20.624;2022-11-11T02:57:35;33.78;;;10.60;;
57822;SDS011;43650;48.064;20.624;2022-11-11T02:58:36;27.70;;;9.88;;
57822;SDS011;43650;48.064;20.624;2022-11-11T02:59:39;24.80;;;9.97;;
57822;SDS011;43650;48.064;20.624;2022-11-11T03:00:40;21.60;;;8.98;;
57822;SDS011;43650;48.064;20.624;2022-11-11T03:01:41;22.25;;;8.90;;
57822;SDS011;43650;48.064;20.624;2022-11-11T03:02:41;20.20;;;7.97;;
57822;SDS011;43650;48.064;20.624;2022-11-11T03:03:42;18.43;;;7.53;;
57822;SDS011;43650;48.064;20.624;2022-11-11T03:04:42;16.73;;;7.40;;
57822;SDS011;43650;48.064;20.624;2022-11-11T03:05:43;11.60;;;6.97;;
57822;SDS011;43650;48.064;20.624;2022-11-11T03:06:43;15.17;;;6.27;;
57822;SDS011;43650;48.064;20.624;2022-11-11T03:07:43;12.97;;;6.33;;
57822;SDS011;43650;48.064;20.624;2022-11-11T03:08:44;15.47;;;6.33;;
57822;SDS011;43650;48.064;20.624;2022-11-11T03:09:44;14.00;;;6.47;;
57822;SDS011;43650;48.064;20.624;2022-11-11T03:10:45;9.20;;;5.80;;
57822;SDS011;43650;48.064;20.624;2022-11-11T03:11:45;15.07;;;5.17;;
57822;SDS011;43650;48.064;20.624;2022-11-11T03:12:45;13.30;;;6.23;;
57822;SDS011;43650;48.064;20.624;2022-11-11T03:13:46;11.07;;;5.33;;
57822;SDS011;43650;48.064;20.624;2022-11-11T03:14:46;12.57;;;5.77;;
57822;SDS011;43650;48.064;20.624;2022-11-11T03:15:47;11.23;;;5.67;;
57822;SDS011;43650;48.064;20.624;2022-11-11T03:18:07;11.80;;;5.30;;
57822;SDS011;43650;48.064;20.624;2022-11-11T03:19:07;12.00;;;6.83;;
57822;SDS011;43650;48.064;20.624;2022-11-11T03:20:09;11.50;;;5.50;;
57822;SDS011;43650;48.064;20.624;2022-11-11T03:21:29;10.32;;;4.95;;
57822;SDS011;43650;48.064;20.624;2022-11-11T03:22:29;8.67;;;4.90;;
57822;SDS011;43650;48.064;20.624;2022-11-11T03:23:30;12.33;;;5.40;;
57822;SDS011;43650;48.064;20.624;2022-11-11T03:24:30;10.20;;;5.43;;
57822;SDS011;43650;48.064;20.624;2022-11-11T03:25:49;12.65;;;5.50;;
57822;SDS011;43650;48.064;20.624;2022-11-11T03:26:49;12.60;;;6.00;;
57822;SDS011;43650;48.064;20.624;2022-11-11T03:27:50;14.70;;;6.60;;
57822;SDS011;43650;48.064;20.624;2022-11-11T03:28:50;11.50;;;5.37;;
57822;SDS011;43650;48.064;20.624;2022-11-11T03:29:51;11.37;;;5.63;;
57822;SDS011;43650;48.064;20.624;2022-11-11T03:30:52;9.27;;;4.83;;
57822;SDS011;43650;48.064;20.624;2022-11-11T03:31:52;6.32;;;4.18;;
57822;SDS011;43650;48.064;20.624;2022-11-11T03:32:53;9.83;;;4.33;;
57822;SDS011;43650;48.064;20.624;2022-11-11T03:33:53;9.30;;;4.00;;
57822;SDS011;43650;48.064;20.624;2022-11-11T03:34:54;8.03;;;3.97;;
57822;SDS011;43650;48.064;20.624;2022-11-11T03:35:54;8.23;;;4.37;;
57822;SDS011;43650;48.064;20.624;2022-11-11T03:36:54;10.60;;;4.50;;
57822;SDS011;43650;48.064;20.624;2022-11-11T03:38:14;9.30;;;5.35;;
57822;SDS011;43650;48.064;20.624;2022-11-11T03:39:23;9.15;;;4.05;;
57822;SDS011;43650;48.064;20.624;2022-11-11T03:40:24;9.73;;;4.90;;
57822;SDS011;43650;48.064;20.624;2022-11-11T03:41:24;10.20;;;4.07;;
57822;SDS011;43650;48.064;20.624;2022-11-11T03:42:24;7.70;;;4.03;;
57822;SDS011;43650;48.064;20.624;2022-11-11T03:43:26;7.50;;;4.43;;
57822;SDS011;43650;48.064;20.624;2022-11-11T03:44:28;11.60;;;4.03;;
57822;SDS011;43650;48.064;20.624;2022-11-11T03:45:28;7.50;;;3.87;;
57822;SDS011;43650;48.064;20.624;2022-11-11T03:46:29;9.40;;;3.87;;
57822;SDS011;43650;48.064;20.624;2022-11-11T03:47:29;7.73;;;4.03;;
57822;SDS011;43650;48.064;20.624;2022-11-11T03:48:31;7.77;;;4.03;;
57822;SDS011;43650;48.064;20.624;2022-11-11T03:49:32;12.15;;;4.68;;
57822;SDS011;43650;48.064;20.624;2022-11-11T03:50:32;7.83;;;4.20;;
57822;SDS011;43650;48.064;20.624;2022-11-11T03:51:33;6.63;;;3.83;;
57822;SDS011;43650;48.064;20.624;2022-11-11T03:52:33;6.90;;;3.97;;
57822;SDS011;43650;48.064;20.624;2022-11-11T03:53:34;11.30;;;4.37;;
57822;SDS011;43650;48.064;20.624;2022-11-11T03:54:34;8.57;;;3.90;;
57822;SDS011;43650;48.064;20.624;2022-11-11T03:55:34;7.37;;;4.10;;
57822;SDS011;43650;48.064;20.624;2022-11-11T03:56:35;11.43;;;5.17;;
57822;SDS011;43650;48.064;20.624;2022-11-11T03:57:39;12.70;;;4.17;;
57822;SDS011;43650;48.064;20.624;2022-11-11T03:58:41;11.15;;;4.60;;
57822;SDS011;43650;48.064;20.624;2022-11-11T03:59:41;9.13;;;3.93;;
57822;SDS011;43650;48.064;20.624;2022-11-11T04:00:42;7.07;;;4.13;;
57822;SDS011;43650;48.064;20.624;2022-11-11T04:01:43;8.20;;;3.83;;
57822;SDS011;43650;48.064;20.624;2022-11-11T04:03:06;11.80;;;4.87;;
57822;SDS011;43650;48.064;20.624;2022-11-11T04:04:25;12.37;;;4.57;;
57822;SDS011;43650;48.064;20.624;2022-11-11T04:05:44;7.68;;;4.47;;
57822;SDS011;43650;48.064;20.624;2022-11-11T04:07:03;6.45;;;3.90;;
57822;SDS011;43650;48.064;20.624;2022-11-11T04:08:22;7.80;;;3.60;;
57822;SDS011;43650;48.064;20.624;2022-11-11T04:09:41;9.00;;;4.87;;
57822;SDS011;43650;48.064;20.624;2022-11-11T04:11:02;10.88;;;4.65;;
57822;SDS011;43650;48.064;20.624;2022-11-11T04:12:13;10.18;;;4.82;;
57822;SDS011;43650;48.064;20.624;2022-11-11T04:13:14;9.30;;;5.33;;
57822;SDS011;43650;48.064;20.624;2022-11-11T04:14:33;11.85;;;5.43;;
57822;SDS011;43650;48.064;20.624;2022-11-11T04:15:52;23.15;;;9.43;;
57822;SDS011;43650;48.064;20.624;2022-11-11T04:17:08;19.73;;;7.87;;
57822;SDS011;43650;48.064;20.624;2022-11-11T04:18:08;19.03;;;7.53;;
57822;SDS011;43650;48.064;20.624;2022-11-11T04:19:08;19.17;;;8.00;;
57822;SDS011;43650;48.064;20.624;2022-11-11T04:20:28;14.52;;;6.95;;
57822;SDS011;43650;48.064;20.624;2022-11-11T04:21:58;12.52;;;6.12;;
57822;SDS011;43650;48.064;20.624;2022-11-11T04:22:58;10.90;;;5.62;;
57822;SDS011;43650;48.064;20.624;2022-11-11T04:23:58;9.57;;;5.57;;
57822;SDS011;43650;48.064;20.624;2022-11-11T04:24:59;14.20;;;6.17;;
57822;SDS011;43650;48.064;20.624;2022-11-11T04:26:18;9.85;;;5.62;;
57822;SDS011;43650;48.064;20.624;2022-11-11T04:27:18;16.20;;;6.00;;
57822;SDS011;43650;48.064;20.624;2022-11-11T04:28:19;14.18;;;6.45;;
57822;SDS011;43650;48.064;20.624;2022-11-11T04:29:38;14.23;;;6.60;;
57822;SDS011;43650;48.064;20.624;2022-11-11T04:30:39;79.53;;;30.55;;
57822;SDS011;43650;48.064;20.624;2022-11-11T04:31:39;160.23;;;61.40;;
57822;SDS011;43650;48.064;20.624;2022-11-11T04:32:59;184.35;;;64.12;;
57822;SDS011;43650;48.064;20.624;2022-11-11T04:34:00;57.37;;;24.90;;
57822;SDS011;43650;48.064;20.624;2022-11-11T04:35:01;41.47;;;15.57;;
57822;SDS011;43650;48.064;20.624;2022-11-11T04:36:03;24.87;;;11.43;;
57822;SDS011;43650;48.064;20.624;2022-11-11T04:37:04;25.52;;;10.65;;
57822;SDS011;43650;48.064;20.624;2022-11-11T04:38:05;21.40;;;9.17;;
57822;SDS011;43650;48.064;20.624;2022-11-11T04:39:24;15.65;;;7.05;;
57822;SDS011;43650;48.064;20.624;2022-11-11T04:40:44;11.07;;;6.10;;
57822;SDS011;43650;48.064;20.624;2022-11-11T04:42:03;13.57;;;6.03;;
57822;SDS011;43650;48.064;20.624;2022-11-11T04:43:03;12.03;;;6.10;;
57822;SDS011;43650;48.064;20.624;2022-11-11T04:44:04;12.73;;;6.13;;
57822;SDS011;43650;48.064;20.624;2022-11-11T04:45:23;15.75;;;7.85;;
57822;SDS011;43650;48.064;20.624;2022-11-11T04:46:35;23.38;;;11.80;;
57822;SDS011;43650;48.064;20.624;2022-11-11T04:47:35;17.60;;;9.13;;
57822;SDS011;43650;48.064;20.624;2022-11-11T04:48:36;14.65;;;9.18;;
57822;SDS011;43650;48.064;20.624;2022-11-11T04:49:36;20.30;;;9.80;;
57822;SDS011;43650;48.064;20.624;2022-11-11T04:50:37;15.13;;;8.00;;
57822;SDS011;43650;48.064;20.624;2022-11-11T04:51:39;16.37;;;8.48;;
57822;SDS011;43650;48.064;20.624;2022-11-11T04:52:58;20.08;;;7.57;;
57822;SDS011;43650;48.064;20.624;2022-11-11T04:53:59;27.67;;;14.07;;
57822;SDS011;43650;48.064;20.624;2022-11-11T04:54:59;69.67;;;62.10;;
57822;SDS011;43650;48.064;20.624;2022-11-11T04:56:18;47.25;;;41.63;;
57822;SDS011;43650;48.064;20.624;2022-11-11T04:57:41;28.98;;;20.20;;
57822;SDS011;43650;48.064;20.624;2022-11-11T04:58:41;19.50;;;11.82;;
57822;SDS011;43650;48.064;20.624;2022-11-11T04:59:42;24.80;;;9.57;;
57822;SDS011;43650;48.064;20.624;2022-11-11T05:00:42;65.00;;;23.00;;
57822;SDS011;43650;48.064;20.624;2022-11-11T05:01:43;25.97;;;12.50;;
57822;SDS011;43650;48.064;20.624;2022-11-11T05:03:01;38.42;;;16.60;;
57822;SDS011;43650;48.064;20.624;2022-11-11T05:04:20;39.40;;;15.23;;
57822;SDS011;43650;48.064;20.624;2022-11-11T05:05:21;21.23;;;10.07;;
57822;SDS011;43650;48.064;20.624;2022-11-11T05:07:41;13.02;;;6.47;;
57822;SDS011;43650;48.064;20.624;2022-11-11T05:09:00;13.70;;;6.28;;
57822;SDS011;43650;48.064;20.624;2022-11-11T05:10:01;13.13;;;6.68;;
57822;SDS011;43650;48.064;20.624;2022-11-11T05:11:02;12.27;;;6.47;;
57822;SDS011;43650;48.064;20.624;2022-11-11T05:12:03;15.65;;;6.80;;
57822;SDS011;43650;48.064;20.624;2022-11-11T05:13:04;24.83;;;11.40;;
57822;SDS011;43650;48.064;20.624;2022-11-11T05:14:23;45.70;;;18.83;;
57822;SDS011;43650;48.064;20.624;2022-11-11T05:15:42;45.33;;;18.42;;
57822;SDS011;43650;48.064;20.624;2022-11-11T05:17:01;41.78;;;18.50;;
57822;SDS011;43650;48.064;20.624;2022-11-11T05:18:20;34.30;;;14.98;;
57822;SDS011;43650;48.064;20.624;2022-11-11T05:19:39;33.90;;;15.50;;
57822;SDS011;43650;48.064;20.624;2022-11-11T05:20:58;25.85;;;11.70;;
57822;SDS011;43650;48.064;20.624;2022-11-11T05:23:26;23.70;;;11.18;;
57822;SDS011;43650;48.064;20.624;2022-11-11T05:24:46;33.90;;;14.57;;
57822;SDS011;43650;48.064;20.624;2022-11-11T05:26:05;26.77;;;13.75;;
57822;SDS011;43650;48.064;20.624;2022-11-11T05:27:05;28.40;;;14.83;;
57822;SDS011;43650;48.064;20.624;2022-11-11T05:28:06;30.70;;;14.53;;
57822;SDS011;43650;48.064;20.624;2022-11-11T05:29:06;28.73;;;14.27;;
57822;SDS011;43650;48.064;20.624;2022-11-11T05:30:08;30.07;;;15.33;;
57822;SDS011;43650;48.064;20.624;2022-11-11T05:31:09;27.02;;;15.25;;
57822;SDS011;43650;48.064;20.624;2022-11-11T05:32:10;24.70;;;12.93;;
57822;SDS011;43650;48.064;20.624;2022-11-11T05:33:15;23.33;;;13.27;;
57822;SDS011;43650;48.064;20.624;2022-11-11T05:34:16;22.50;;;12.07;;
57822;SDS011;43650;48.064;20.624;2022-11-11T05:35:16;21.83;;;11.63;;
57822;SDS011;43650;48.064;20.624;2022-11-11T05:36:17;22.98;;;12.02;;
57822;SDS011;43650;48.064;20.624;2022-11-11T05:37:17;24.30;;;12.33;;
57822;SDS011;43650;48.064;20.624;2022-11-11T05:38:18;22.13;;;12.73;;
57822;SDS011;43650;48.064;20.624;2022-11-11T05:39:21;24.12;;;13.45;;
57822;SDS011;43650;48.064;20.624;2022-11-11T05:40:22;24.63;;;13.37;;
57822;SDS011;43650;48.064;20.624;2022-11-11T05:41:22;21.23;;;11.57;;
57822;SDS011;43650;48.064;20.624;2022-11-11T05:42:22;21.47;;;13.40;;
57822;SDS011;43650;48.064;20.624;2022-11-11T05:43:23;26.37;;;13.03;;
57822;SDS011;43650;48.064;20.624;2022-11-11T05:44:23;23.50;;;12.90;;
57822;SDS011;43650;48.064;20.624;2022-11-11T05:45:23;27.53;;;12.33;;
57822;SDS011;43650;48.064;20.624;2022-11-11T05:46:24;22.07;;;12.97;;
57822;SDS011;43650;48.064;20.624;2022-11-11T05:47:24;26.00;;;12.67;;
57822;SDS011;43650;48.064;20.624;2022-11-11T05:48:25;22.00;;;12.02;;
57822;SDS011;43650;48.064;20.624;2022-11-11T05:49:26;23.50;;;12.87;;
57822;SDS011;43650;48.064;20.624;2022-11-11T05:50:27;23.80;;;13.93;;
57822;SDS011;43650;48.064;20.624;2022-11-11T05:51:27;25.07;;;13.47;;
57822;SDS011;43650;48.064;20.624;2022-11-11T05:52:28;26.57;;;14.77;;
57822;SDS011;43650;48.064;20.624;2022-11-11T05:53:28;28.20;;;15.63;;
57822;SDS011;43650;48.064;20.624;2022-11-11T05:54:28;29.87;;;15.50;;
57822;SDS011;43650;48.064;20.624;2022-11-11T05:55:29;31.40;;;14.97;;
57822;SDS011;43650;48.064;20.624;2022-11-11T05:56:29;25.13;;;14.43;;
57822;SDS011;43650;48.064;20.624;2022-11-11T05:57:30;29.13;;;13.97;;
57822;SDS011;43650;48.064;20.624;2022-11-11T05:58:30;24.33;;;14.30;;
57822;SDS011;43650;48.064;20.624;2022-11-11T05:59:30;28.43;;;13.87;;
57822;SDS011;43650;48.064;20.624;2022-11-11T06:00:31;24.10;;;14.50;;
57822;SDS011;43650;48.064;20.624;2022-11-11T06:01:31;28.10;;;15.13;;
57822;SDS011;43650;48.064;20.624;2022-11-11T06:02:32;19.23;;;9.67;;
57822;SDS011;43650;48.064;20.624;2022-11-11T06:03:32;21.73;;;8.77;;
57822;SDS011;43650;48.064;20.624;2022-11-11T06:04:33;18.20;;;8.40;;
57822;SDS011;43650;48.064;20.624;2022-11-11T06:05:37;24.65;;;11.65;;
57822;SDS011;43650;48.064;20.624;2022-11-11T06:06:37;27.25;;;12.57;;
57822;SDS011;43650;48.064;20.624;2022-11-11T06:07:38;31.37;;;16.13;;
57822;SDS011;43650;48.064;20.624;2022-11-11T06:08:39;34.08;;;18.48;;
57822;SDS011;43650;48.064;20.624;2022-11-11T06:09:40;38.97;;;19.87;;
57822;SDS011;43650;48.064;20.624;2022-11-11T06:10:41;39.87;;;19.50;;
57822;SDS011;43650;48.064;20.624;2022-11-11T06:12:42;32.78;;;18.17;;
57822;SDS011;43650;48.064;20.624;2022-11-11T06:14:01;32.40;;;16.35;;
57822;SDS011;43650;48.064;20.624;2022-11-11T06:15:02;35.95;;;17.00;;
57822;SDS011;43650;48.064;20.624;2022-11-11T06:16:02;36.13;;;18.37;;
57822;SDS011;43650;48.064;20.624;2022-11-11T06:17:03;50.77;;;19.03;;
57822;SDS011;43650;48.064;20.624;2022-11-11T06:18:03;36.40;;;18.80;;
57822;SDS011;43650;48.064;20.624;2022-11-11T06:19:04;57.03;;;23.08;;
57822;SDS011;43650;48.064;20.624;2022-11-11T06:20:05;45.93;;;21.83;;
57822;SDS011;43650;48.064;20.624;2022-11-11T06:21:06;45.78;;;20.25;;
57822;SDS011;43650;48.064;20.624;2022-11-11T06:22:06;66.73;;;24.80;;
57822;SDS011;43650;48.064;20.624;2022-11-11T06:23:07;54.03;;;22.37;;
57822;SDS011;43650;48.064;20.624;2022-11-11T06:24:07;46.07;;;20.63;;
57822;SDS011;43650;48.064;20.624;2022-11-11T06:25:08;57.37;;;22.73;;
57822;SDS011;43650;48.064;20.624;2022-11-11T06:26:27;50.60;;;20.30;;
57822;SDS011;43650;48.064;20.624;2022-11-11T06:27:27;64.57;;;25.10;;